Creek Data

    Home     View Charts     View Raw Data     Messages

ID Distance Battery Voltage Battery Current Internal Temp Internal Humidity External Temp Solar Input rssi snr Time Stamp Record
34947 17.4 4.04 0 40 40 41 4.5 -80 7 03/14/2025 08:30 AM 16695
34946 15.0 3.96 0 40 40 41 4.5 -82 8 03/14/2025 08:15 AM 16694
34945 15.1 3.95 0 40 40 41 4.5 -85 7 03/14/2025 08:00 AM 16693
34944 15.1 3.99 -10 40 40 41 4.3 -85 7 03/14/2025 07:45 AM 16692
34943 25.4 3.94 -8 41 40 41 4.1 -80 8 03/14/2025 07:30 AM 16691
34942 15.1 3.95 -5 41 40 42 0.3 -84 7 03/14/2025 07:15 AM 16690
34941 15.1 4.00 -6 41 40 42 0 -81 8 03/14/2025 07:00 AM 16689
34940 15.0 3.95 -5 41 40 42 0 -84 8 03/14/2025 06:45 AM 16688
34939 15.1 4.00 -5 41 40 42 0 -85 8 03/14/2025 06:30 AM 16687
34938 15.1 3.95 -5 42 39 42 0.1 -82 8 03/14/2025 06:15 AM 16686
34937 17.4 3.95 -5 42 39 43 0 -87 8 03/14/2025 06:00 AM 16685
34936 15.0 4.01 -5 42 39 43 0 -84 8 03/14/2025 05:45 AM 16684
34935 15.0 3.95 -5 42 39 43 0 -84 6 03/14/2025 05:30 AM 16683
34934 15.1 3.96 -5 42 39 43 0 -84 8 03/14/2025 05:15 AM 16682
34933 15.1 4.01 -5 42 39 43 0.1 -79 8 03/14/2025 05:00 AM 16681
34932 15.1 3.96 -5 42 39 43 0.1 -79 7 03/14/2025 04:45 AM 16680
34931 15.1 3.96 -5 42 39 43 0.1 -78 8 03/14/2025 04:30 AM 16679
34930 15.0 3.96 -5 42 40 43 0 -78 8 03/14/2025 04:00 AM 16677
34929 0.0 3.96 -12 43 39 44 0 -79 8 03/14/2025 03:45 AM 16676
34928 15.1 4.01 -5 43 39 44 0.1 -78 8 03/14/2025 03:30 AM 16675
34927 15.1 3.96 -5 43 39 44 0.1 -77 8 03/14/2025 03:15 AM 16674
34926 15.1 3.96 -5 43 39 44 0 -74 8 03/14/2025 03:00 AM 16673
34925 15.1 3.96 -5 43 39 44 0.1 -77 8 03/14/2025 02:45 AM 16672
34924 15.1 4.02 -5 44 39 44 0 -77 8 03/14/2025 02:30 AM 16671
34923 15.1 3.96 -5 44 39 45 0 -75 8 03/14/2025 02:15 AM 16670